sensor_id;sensor_type;location;lat;lon;timestamp;temperature;humidity
9975;DHT22;5028;50.974;4.968;2023-08-06T00:00:56;14.90;99.90
9975;DHT22;5028;50.974;4.968;2023-08-06T00:03:26;14.90;99.90
9975;DHT22;5028;50.974;4.968;2023-08-06T00:05:55;14.90;99.90
9975;DHT22;5028;50.974;4.968;2023-08-06T00:08:24;14.90;99.90
9975;DHT22;5028;50.974;4.968;2023-08-06T00:10:53;14.80;99.90
9975;DHT22;5028;50.974;4.968;2023-08-06T00:13:22;14.90;99.90
9975;DHT22;5028;50.974;4.968;2023-08-06T00:15:50;14.80;99.90
9975;DHT22;5028;50.974;4.968;2023-08-06T00:18:19;14.80;99.90
9975;DHT22;5028;50.974;4.968;2023-08-06T00:20:49;14.80;99.90
9975;DHT22;5028;50.974;4.968;2023-08-06T00:23:18;14.80;99.90
9975;DHT22;5028;50.974;4.968;2023-08-06T00:25:49;14.80;99.90
9975;DHT22;5028;50.974;4.968;2023-08-06T00:28:18;14.80;99.90
9975;DHT22;5028;50.974;4.968;2023-08-06T00:30:52;14.80;99.90
9975;DHT22;5028;50.974;4.968;2023-08-06T00:33:21;14.80;99.90
9975;DHT22;5028;50.974;4.968;2023-08-06T00:35:52;14.80;99.90
9975;DHT22;5028;50.974;4.968;2023-08-06T00:38:20;14.80;99.90
9975;DHT22;5028;50.974;4.968;2023-08-06T00:40:49;14.80;99.90
9975;DHT22;5028;50.974;4.968;2023-08-06T00:43:18;14.80;99.90
9975;DHT22;5028;50.974;4.968;2023-08-06T00:45:47;14.80;99.90
9975;DHT22;5028;50.974;4.968;2023-08-06T00:48:16;14.90;99.90
9975;DHT22;5028;50.974;4.968;2023-08-06T00:50:45;14.80;99.90
9975;DHT22;5028;50.974;4.968;2023-08-06T00:53:16;14.90;99.90
9975;DHT22;5028;50.974;4.968;2023-08-06T00:55:45;14.80;99.90
9975;DHT22;5028;50.974;4.968;2023-08-06T00:58:14;14.80;99.90
9975;DHT22;5028;50.974;4.968;2023-08-06T01:00:45;14.80;99.90
9975;DHT22;5028;50.974;4.968;2023-08-06T01:03:14;14.80;99.90
9975;DHT22;5028;50.974;4.968;2023-08-06T01:05:43;14.80;99.90
9975;DHT22;5028;50.974;4.968;2023-08-06T01:08:22;14.80;99.90
9975;DHT22;5028;50.974;4.968;2023-08-06T01:11:04;14.80;99.90
9975;DHT22;5028;50.974;4.968;2023-08-06T01:13:42;14.80;99.90
9975;DHT22;5028;50.974;4.968;2023-08-06T01:16:15;14.80;99.90
9975;DHT22;5028;50.974;4.968;2023-08-06T01:18:44;14.80;99.90
9975;DHT22;5028;50.974;4.968;2023-08-06T01:21:18;14.90;99.90
9975;DHT22;5028;50.974;4.968;2023-08-06T01:23:47;14.90;99.90
9975;DHT22;5028;50.974;4.968;2023-08-06T01:26:22;14.90;99.90
9975;DHT22;5028;50.974;4.968;2023-08-06T01:28:59;14.90;99.90
9975;DHT22;5028;50.974;4.968;2023-08-06T01:31:31;14.90;99.90
9975;DHT22;5028;50.974;4.968;2023-08-06T01:34:01;14.90;99.90
9975;DHT22;5028;50.974;4.968;2023-08-06T01:36:32;14.90;99.90
9975;DHT22;5028;50.974;4.968;2023-08-06T01:39:05;14.90;99.90
9975;DHT22;5028;50.974;4.968;2023-08-06T01:41:33;15.00;99.90
9975;DHT22;5028;50.974;4.968;2023-08-06T01:44:02;15.00;99.90
9975;DHT22;5028;50.974;4.968;2023-08-06T01:46:31;15.00;99.90
9975;DHT22;5028;50.974;4.968;2023-08-06T01:49:00;15.00;99.90
9975;DHT22;5028;50.974;4.968;2023-08-06T01:51:29;15.00;99.90
9975;DHT22;5028;50.974;4.968;2023-08-06T01:53:59;15.00;99.90
9975;DHT22;5028;50.974;4.968;2023-08-06T01:56:27;15.10;99.90
9975;DHT22;5028;50.974;4.968;2023-08-06T01:58:57;15.00;99.90
9975;DHT22;5028;50.974;4.968;2023-08-06T02:01:28;15.00;99.90
9975;DHT22;5028;50.974;4.968;2023-08-06T02:03:57;15.10;99.90
9975;DHT22;5028;50.974;4.968;2023-08-06T02:06:32;15.10;99.90
9975;DHT22;5028;50.974;4.968;2023-08-06T02:09:05;15.10;99.90
9975;DHT22;5028;50.974;4.968;2023-08-06T02:11:34;15.10;99.90
9975;DHT22;5028;50.974;4.968;2023-08-06T02:14:03;15.00;99.90
9975;DHT22;5028;50.974;4.968;2023-08-06T02:16:32;15.00;99.90
9975;DHT22;5028;50.974;4.968;2023-08-06T02:19:00;15.00;99.90
9975;DHT22;5028;50.974;4.968;2023-08-06T02:21:29;15.00;99.90
9975;DHT22;5028;50.974;4.968;2023-08-06T02:23:57;15.00;99.90
9975;DHT22;5028;50.974;4.968;2023-08-06T02:26:28;15.00;99.90
9975;DHT22;5028;50.974;4.968;2023-08-06T02:28:56;15.00;99.90
9975;DHT22;5028;50.974;4.968;2023-08-06T02:31:25;15.00;99.90
9975;DHT22;5028;50.974;4.968;2023-08-06T02:33:54;15.10;99.90
9975;DHT22;5028;50.974;4.968;2023-08-06T02:36:24;15.10;99.90
9975;DHT22;5028;50.974;4.968;2023-08-06T02:38:56;15.10;99.90
9975;DHT22;5028;50.974;4.968;2023-08-06T02:41:25;15.00;99.90
9975;DHT22;5028;50.974;4.968;2023-08-06T02:43:55;15.00;99.90
9975;DHT22;5028;50.974;4.968;2023-08-06T02:46:24;15.00;99.90
9975;DHT22;5028;50.974;4.968;2023-08-06T02:48:52;15.00;99.90
9975;DHT22;5028;50.974;4.968;2023-08-06T02:51:21;15.00;99.90
9975;DHT22;5028;50.974;4.968;2023-08-06T02:53:50;15.00;99.90
9975;DHT22;5028;50.974;4.968;2023-08-06T02:56:19;15.00;99.90
9975;DHT22;5028;50.974;4.968;2023-08-06T02:58:48;15.00;99.90
9975;DHT22;5028;50.974;4.968;2023-08-06T03:01:18;15.00;99.90
9975;DHT22;5028;50.974;4.968;2023-08-06T03:03:47;15.00;99.90
9975;DHT22;5028;50.974;4.968;2023-08-06T03:06:16;15.00;99.90
9975;DHT22;5028;50.974;4.968;2023-08-06T03:08:45;15.00;99.90
9975;DHT22;5028;50.974;4.968;2023-08-06T03:11:13;14.90;99.90
9975;DHT22;5028;50.974;4.968;2023-08-06T03:13:42;14.90;99.90
9975;DHT22;5028;50.974;4.968;2023-08-06T03:16:11;14.90;99.90
9975;DHT22;5028;50.974;4.968;2023-08-06T03:18:41;14.90;99.90
9975;DHT22;5028;50.974;4.968;2023-08-06T03:21:09;14.90;99.90
9975;DHT22;5028;50.974;4.968;2023-08-06T03:23:39;14.90;99.90
9975;DHT22;5028;50.974;4.968;2023-08-06T03:26:09;14.90;99.90
9975;DHT22;5028;50.974;4.968;2023-08-06T03:28:39;14.90;99.90
9975;DHT22;5028;50.974;4.968;2023-08-06T03:31:07;14.90;99.90
9975;DHT22;5028;50.974;4.968;2023-08-06T03:33:36;14.90;99.90
9975;DHT22;5028;50.974;4.968;2023-08-06T03:36:07;14.90;99.90
9975;DHT22;5028;50.974;4.968;2023-08-06T03:38:36;15.00;99.90
9975;DHT22;5028;50.974;4.968;2023-08-06T03:41:04;15.00;99.90
9975;DHT22;5028;50.974;4.968;2023-08-06T03:43:33;15.00;99.90
9975;DHT22;5028;50.974;4.968;2023-08-06T03:46:02;15.00;99.90
9975;DHT22;5028;50.974;4.968;2023-08-06T03:48:31;15.00;99.90
9975;DHT22;5028;50.974;4.968;2023-08-06T03:51:00;15.00;99.90
9975;DHT22;5028;50.974;4.968;2023-08-06T03:53:31;15.00;99.90
9975;DHT22;5028;50.974;4.968;2023-08-06T03:55:59;15.00;99.90
9975;DHT22;5028;50.974;4.968;2023-08-06T03:58:28;15.00;99.90
9975;DHT22;5028;50.974;4.968;2023-08-06T04:00:58;14.90;99.90
9975;DHT22;5028;50.974;4.968;2023-08-06T04:03:28;14.90;99.90
9975;DHT22;5028;50.974;4.968;2023-08-06T04:05:56;14.80;99.90
9975;DHT22;5028;50.974;4.968;2023-08-06T04:08:25;14.80;99.90
9975;DHT22;5028;50.974;4.968;2023-08-06T04:10:56;14.80;99.90
9975;DHT22;5028;50.974;4.968;2023-08-06T04:13:25;14.80;99.90
9975;DHT22;5028;50.974;4.968;2023-08-06T04:15:54;14.70;99.90
9975;DHT22;5028;50.974;4.968;2023-08-06T04:18:23;14.70;99.90
9975;DHT22;5028;50.974;4.968;2023-08-06T04:20:52;14.70;99.90
9975;DHT22;5028;50.974;4.968;2023-08-06T04:23:22;14.70;99.90
9975;DHT22;5028;50.974;4.968;2023-08-06T04:25:51;14.70;99.90
9975;DHT22;5028;50.974;4.968;2023-08-06T04:28:21;14.70;99.90
9975;DHT22;5028;50.974;4.968;2023-08-06T04:30:50;14.70;99.90
9975;DHT22;5028;50.974;4.968;2023-08-06T04:33:21;14.70;99.90
9975;DHT22;5028;50.974;4.968;2023-08-06T04:35:54;14.70;99.90
9975;DHT22;5028;50.974;4.968;2023-08-06T04:38:23;14.70;99.90
9975;DHT22;5028;50.974;4.968;2023-08-06T04:40:53;14.70;99.90
9975;DHT22;5028;50.974;4.968;2023-08-06T04:43:25;14.70;99.90
9975;DHT22;5028;50.974;4.968;2023-08-06T04:45:55;14.70;99.90
9975;DHT22;5028;50.974;4.968;2023-08-06T04:48:24;14.70;99.90
9975;DHT22;5028;50.974;4.968;2023-08-06T04:50:53;14.70;99.90
9975;DHT22;5028;50.974;4.968;2023-08-06T04:53:21;14.60;99.90
9975;DHT22;5028;50.974;4.968;2023-08-06T04:55:50;14.60;99.90
9975;DHT22;5028;50.974;4.968;2023-08-06T04:58:19;14.70;99.90
9975;DHT22;5028;50.974;4.968;2023-08-06T05:00:49;14.60;99.90
9975;DHT22;5028;50.974;4.968;2023-08-06T05:03:18;14.60;99.90
9975;DHT22;5028;50.974;4.968;2023-08-06T05:05:46;14.60;99.90
9975;DHT22;5028;50.974;4.968;2023-08-06T05:08:15;14.50;99.90
9975;DHT22;5028;50.974;4.968;2023-08-06T05:10:46;14.60;99.90
9975;DHT22;5028;50.974;4.968;2023-08-06T05:13:14;14.50;99.90
9975;DHT22;5028;50.974;4.968;2023-08-06T05:15:43;14.50;99.90
9975;DHT22;5028;50.974;4.968;2023-08-06T05:18:15;14.40;99.90
9975;DHT22;5028;50.974;4.968;2023-08-06T05:20:44;14.40;99.90
9975;DHT22;5028;50.974;4.968;2023-08-06T05:23:13;14.40;99.90
9975;DHT22;5028;50.974;4.968;2023-08-06T05:25:42;14.40;99.90
9975;DHT22;5028;50.974;4.968;2023-08-06T05:28:11;14.30;99.90
9975;DHT22;5028;50.974;4.968;2023-08-06T05:30:40;14.30;99.90
9975;DHT22;5028;50.974;4.968;2023-08-06T05:33:09;14.20;99.90
9975;DHT22;5028;50.974;4.968;2023-08-06T05:35:40;14.00;99.90
9975;DHT22;5028;50.974;4.968;2023-08-06T05:38:09;13.80;99.90
9975;DHT22;5028;50.974;4.968;2023-08-06T05:40:38;13.70;99.90
9975;DHT22;5028;50.974;4.968;2023-08-06T05:43:06;13.50;99.90
9975;DHT22;5028;50.974;4.968;2023-08-06T05:45:35;13.50;99.90
9975;DHT22;5028;50.974;4.968;2023-08-06T05:48:04;13.40;99.90
9975;DHT22;5028;50.974;4.968;2023-08-06T05:50:34;13.30;99.90
9975;DHT22;5028;50.974;4.968;2023-08-06T05:53:04;13.30;99.90
9975;DHT22;5028;50.974;4.968;2023-08-06T05:55:33;13.20;99.90
9975;DHT22;5028;50.974;4.968;2023-08-06T05:58:02;13.20;99.90
9975;DHT22;5028;50.974;4.968;2023-08-06T06:00:31;13.20;99.90
9975;DHT22;5028;50.974;4.968;2023-08-06T06:03:02;13.10;99.90
9975;DHT22;5028;50.974;4.968;2023-08-06T06:05:31;13.20;99.90
9975;DHT22;5028;50.974;4.968;2023-08-06T06:08:00;13.20;99.90
9975;DHT22;5028;50.974;4.968;2023-08-06T06:10:30;13.30;99.90
9975;DHT22;5028;50.974;4.968;2023-08-06T06:12:59;13.30;99.90
9975;DHT22;5028;50.974;4.968;2023-08-06T06:15:29;13.40;99.90
9975;DHT22;5028;50.974;4.968;2023-08-06T06:17:58;13.40;99.90
9975;DHT22;5028;50.974;4.968;2023-08-06T06:20:27;13.40;99.90
9975;DHT22;5028;50.974;4.968;2023-08-06T06:22:56;13.50;99.90
9975;DHT22;5028;50.974;4.968;2023-08-06T06:25:25;13.40;99.90
9975;DHT22;5028;50.974;4.968;2023-08-06T06:27:57;13.40;99.90
9975;DHT22;5028;50.974;4.968;2023-08-06T06:30:26;13.40;99.90
9975;DHT22;5028;50.974;4.968;2023-08-06T06:32:55;13.40;99.90
9975;DHT22;5028;50.974;4.968;2023-08-06T06:35:24;13.40;99.90
9975;DHT22;5028;50.974;4.968;2023-08-06T06:37:55;13.50;99.90
9975;DHT22;5028;50.974;4.968;2023-08-06T06:40:24;13.50;99.90
9975;DHT22;5028;50.974;4.968;2023-08-06T06:42:55;13.50;99.90
9975;DHT22;5028;50.974;4.968;2023-08-06T06:45:24;13.50;99.90
9975;DHT22;5028;50.974;4.968;2023-08-06T06:47:53;13.50;99.90
9975;DHT22;5028;50.974;4.968;2023-08-06T06:50:22;13.50;99.90
9975;DHT22;5028;50.974;4.968;2023-08-06T06:52:51;13.50;99.90
9975;DHT22;5028;50.974;4.968;2023-08-06T06:55:20;13.40;99.90
9975;DHT22;5028;50.974;4.968;2023-08-06T06:57:48;13.40;99.90
9975;DHT22;5028;50.974;4.968;2023-08-06T07:00:19;13.40;99.90
9975;DHT22;5028;50.974;4.968;2023-08-06T07:02:47;13.40;99.90
9975;DHT22;5028;50.974;4.968;2023-08-06T07:05:17;13.40;99.90
9975;DHT22;5028;50.974;4.968;2023-08-06T07:07:46;13.40;99.90
9975;DHT22;5028;50.974;4.968;2023-08-06T07:10:15;13.30;99.90
9975;DHT22;5028;50.974;4.968;2023-08-06T07:12:44;13.30;99.90
9975;DHT22;5028;50.974;4.968;2023-08-06T07:15:14;13.30;99.90
9975;DHT22;5028;50.974;4.968;2023-08-06T07:17:46;13.40;99.90
9975;DHT22;5028;50.974;4.968;2023-08-06T07:20:15;13.40;99.90
9975;DHT22;5028;50.974;4.968;2023-08-06T07:22:44;13.40;99.90
9975;DHT22;5028;50.974;4.968;2023-08-06T07:25:13;13.40;99.90
9975;DHT22;5028;50.974;4.968;2023-08-06T07:27:42;13.40;99.90
9975;DHT22;5028;50.974;4.968;2023-08-06T07:30:12;13.40;99.90
9975;DHT22;5028;50.974;4.968;2023-08-06T07:32:40;13.40;99.90
9975;DHT22;5028;50.974;4.968;2023-08-06T07:35:10;13.60;99.90
9975;DHT22;5028;50.974;4.968;2023-08-06T07:37:39;13.60;99.90
9975;DHT22;5028;50.974;4.968;2023-08-06T07:40:09;13.60;99.90
9975;DHT22;5028;50.974;4.968;2023-08-06T07:42:38;13.70;99.90
9975;DHT22;5028;50.974;4.968;2023-08-06T07:45:08;13.70;99.90
9975;DHT22;5028;50.974;4.968;2023-08-06T07:47:38;13.80;99.90
9975;DHT22;5028;50.974;4.968;2023-08-06T07:50:11;13.80;99.90
9975;DHT22;5028;50.974;4.968;2023-08-06T07:52:41;13.90;99.90
9975;DHT22;5028;50.974;4.968;2023-08-06T07:55:10;14.00;99.90
9975;DHT22;5028;50.974;4.968;2023-08-06T07:57:39;13.90;99.90
9975;DHT22;5028;50.974;4.968;2023-08-06T08:00:08;13.90;99.90
9975;DHT22;5028;50.974;4.968;2023-08-06T08:02:37;13.90;99.90
9975;DHT22;5028;50.974;4.968;2023-08-06T08:05:06;13.90;99.90
9975;DHT22;5028;50.974;4.968;2023-08-06T08:07:37;13.90;99.90
9975;DHT22;5028;50.974;4.968;2023-08-06T08:10:08;13.90;99.90
9975;DHT22;5028;50.974;4.968;2023-08-06T08:12:37;13.90;99.90
9975;DHT22;5028;50.974;4.968;2023-08-06T08:15:07;13.90;99.90
9975;DHT22;5028;50.974;4.968;2023-08-06T08:17:35;13.90;99.90
9975;DHT22;5028;50.974;4.968;2023-08-06T08:20:05;13.90;99.90
9975;DHT22;5028;50.974;4.968;2023-08-06T08:22:34;14.00;99.90
9975;DHT22;5028;50.974;4.968;2023-08-06T08:25:05;14.00;99.90
9975;DHT22;5028;50.974;4.968;2023-08-06T08:27:34;14.00;99.90
9975;DHT22;5028;50.974;4.968;2023-08-06T08:30:03;14.00;99.90
9975;DHT22;5028;50.974;4.968;2023-08-06T08:32:33;14.10;99.90
9975;DHT22;5028;50.974;4.968;2023-08-06T08:35:04;14.10;99.90
9975;DHT22;5028;50.974;4.968;2023-08-06T08:37:36;14.10;99.90
9975;DHT22;5028;50.974;4.968;2023-08-06T08:40:08;14.10;99.90
9975;DHT22;5028;50.974;4.968;2023-08-06T08:42:37;14.20;99.90
9975;DHT22;5028;50.974;4.968;2023-08-06T08:45:11;14.20;99.90
9975;DHT22;5028;50.974;4.968;2023-08-06T08:47:41;14.20;99.90
9975;DHT22;5028;50.974;4.968;2023-08-06T08:50:10;14.30;99.90
9975;DHT22;5028;50.974;4.968;2023-08-06T08:52:40;14.40;99.90
9975;DHT22;5028;50.974;4.968;2023-08-06T08:55:12;14.50;99.90
9975;DHT22;5028;50.974;4.968;2023-08-06T08:57:43;14.50;99.90
9975;DHT22;5028;50.974;4.968;2023-08-06T09:00:13;14.50;99.90
9975;DHT22;5028;50.974;4.968;2023-08-06T09:02:44;14.60;99.90
9975;DHT22;5028;50.974;4.968;2023-08-06T09:05:15;14.60;99.90
9975;DHT22;5028;50.974;4.968;2023-08-06T09:07:48;14.60;99.90
9975;DHT22;5028;50.974;4.968;2023-08-06T09:10:20;14.50;99.90
9975;DHT22;5028;50.974;4.968;2023-08-06T09:12:51;14.40;99.90
9975;DHT22;5028;50.974;4.968;2023-08-06T09:15:24;14.30;99.90
9975;DHT22;5028;50.974;4.968;2023-08-06T09:17:54;14.30;99.90
9975;DHT22;5028;50.974;4.968;2023-08-06T09:20:23;14.30;99.90
9975;DHT22;5028;50.974;4.968;2023-08-06T09:22:53;14.40;99.90
9975;DHT22;5028;50.974;4.968;2023-08-06T09:25:24;14.40;99.90
9975;DHT22;5028;50.974;4.968;2023-08-06T09:27:54;14.40;99.90
9975;DHT22;5028;50.974;4.968;2023-08-06T09:30:29;14.30;99.90
9975;DHT22;5028;50.974;4.968;2023-08-06T09:33:00;14.40;99.90
9975;DHT22;5028;50.974;4.968;2023-08-06T09:35:31;14.40;99.90
9975;DHT22;5028;50.974;4.968;2023-08-06T09:38:06;14.50;99.90
9975;DHT22;5028;50.974;4.968;2023-08-06T09:40:38;14.50;99.90
9975;DHT22;5028;50.974;4.968;2023-08-06T09:43:07;14.60;99.90
9975;DHT22;5028;50.974;4.968;2023-08-06T09:45:37;14.50;99.90
9975;DHT22;5028;50.974;4.968;2023-08-06T09:48:07;14.50;99.90
9975;DHT22;5028;50.974;4.968;2023-08-06T09:50:37;14.50;99.90
9975;DHT22;5028;50.974;4.968;2023-08-06T09:53:07;14.50;99.90
9975;DHT22;5028;50.974;4.968;2023-08-06T09:55:38;14.50;99.90
9975;DHT22;5028;50.974;4.968;2023-08-06T09:58:07;14.50;99.90
9975;DHT22;5028;50.974;4.968;2023-08-06T10:00:36;14.50;99.90
9975;DHT22;5028;50.974;4.968;2023-08-06T10:03:06;14.50;99.90
9975;DHT22;5028;50.974;4.968;2023-08-06T10:05:38;14.50;99.90
9975;DHT22;5028;50.974;4.968;2023-08-06T10:08:08;14.40;99.90
9975;DHT22;5028;50.974;4.968;2023-08-06T10:10:39;14.40;99.90
9975;DHT22;5028;50.974;4.968;2023-08-06T10:13:08;14.40;99.90
9975;DHT22;5028;50.974;4.968;2023-08-06T10:15:38;14.40;99.90
9975;DHT22;5028;50.974;4.968;2023-08-06T10:18:08;14.30;99.90
9975;DHT22;5028;50.974;4.968;2023-08-06T10:20:39;14.20;99.90
9975;DHT22;5028;50.974;4.968;2023-08-06T10:23:08;14.20;99.90
9975;DHT22;5028;50.974;4.968;2023-08-06T10:25:42;14.10;99.90
9975;DHT22;5028;50.974;4.968;2023-08-06T10:28:11;14.00;99.90
9975;DHT22;5028;50.974;4.968;2023-08-06T10:30:44;14.00;99.90
9975;DHT22;5028;50.974;4.968;2023-08-06T10:33:14;14.00;99.90
9975;DHT22;5028;50.974;4.968;2023-08-06T10:35:45;14.00;99.90
9975;DHT22;5028;50.974;4.968;2023-08-06T10:38:18;14.10;99.90
9975;DHT22;5028;50.974;4.968;2023-08-06T10:41:02;14.10;99.90
9975;DHT22;5028;50.974;4.968;2023-08-06T10:43:32;14.10;99.90
9975;DHT22;5028;50.974;4.968;2023-08-06T10:46:03;14.10;99.90
9975;DHT22;5028;50.974;4.968;2023-08-06T10:48:35;14.20;99.90
9975;DHT22;5028;50.974;4.968;2023-08-06T10:51:09;14.10;99.90
9975;DHT22;5028;50.974;4.968;2023-08-06T10:53:42;14.10;99.90
9975;DHT22;5028;50.974;4.968;2023-08-06T10:56:16;14.00;99.90
9975;DHT22;5028;50.974;4.968;2023-08-06T10:58:46;14.00;99.90
9975;DHT22;5028;50.974;4.968;2023-08-06T11:01:16;14.00;99.90
9975;DHT22;5028;50.974;4.968;2023-08-06T11:03:46;14.10;99.90
9975;DHT22;5028;50.974;4.968;2023-08-06T11:06:17;14.10;99.90
9975;DHT22;5028;50.974;4.968;2023-08-06T11:08:48;14.20;99.90
9975;DHT22;5028;50.974;4.968;2023-08-06T11:11:19;14.30;99.90
9975;DHT22;5028;50.974;4.968;2023-08-06T11:13:49;14.30;99.90
9975;DHT22;5028;50.974;4.968;2023-08-06T11:16:19;14.40;99.90
9975;DHT22;5028;50.974;4.968;2023-08-06T11:18:48;14.50;99.90
9975;DHT22;5028;50.974;4.968;2023-08-06T11:21:19;14.50;99.90
9975;DHT22;5028;50.974;4.968;2023-08-06T11:23:48;14.50;99.90
9975;DHT22;5028;50.974;4.968;2023-08-06T11:26:21;14.60;99.90
9975;DHT22;5028;50.974;4.968;2023-08-06T11:28:51;14.50;99.90
9975;DHT22;5028;50.974;4.968;2023-08-06T11:31:20;14.50;99.90
9975;DHT22;5028;50.974;4.968;2023-08-06T11:33:50;14.50;99.90
9975;DHT22;5028;50.974;4.968;2023-08-06T11:36:29;14.50;99.90
9975;DHT22;5028;50.974;4.968;2023-08-06T11:38:58;14.40;99.90
9975;DHT22;5028;50.974;4.968;2023-08-06T11:41:29;14.40;99.90
9975;DHT22;5028;50.974;4.968;2023-08-06T11:43:59;14.50;99.90
9975;DHT22;5028;50.974;4.968;2023-08-06T11:46:28;14.50;99.90
9975;DHT22;5028;50.974;4.968;2023-08-06T11:48:59;14.60;99.90
9975;DHT22;5028;50.974;4.968;2023-08-06T11:51:28;14.60;99.90
9975;DHT22;5028;50.974;4.968;2023-08-06T11:53:58;14.70;99.90
9975;DHT22;5028;50.974;4.968;2023-08-06T11:56:29;14.70;99.90
9975;DHT22;5028;50.974;4.968;2023-08-06T11:58:58;14.70;99.90
9975;DHT22;5028;50.974;4.968;2023-08-06T12:01:27;14.80;99.90
9975;DHT22;5028;50.974;4.968;2023-08-06T12:03:58;14.70;99.90
9975;DHT22;5028;50.974;4.968;2023-08-06T12:06:28;14.80;99.90
9975;DHT22;5028;50.974;4.968;2023-08-06T12:08:56;14.80;99.90
9975;DHT22;5028;50.974;4.968;2023-08-06T12:11:27;15.00;99.90
9975;DHT22;5028;50.974;4.968;2023-08-06T12:14:01;14.90;99.90
9975;DHT22;5028;50.974;4.968;2023-08-06T12:16:30;14.80;99.90
9975;DHT22;5028;50.974;4.968;2023-08-06T12:19:01;14.80;99.90
9975;DHT22;5028;50.974;4.968;2023-08-06T12:21:31;14.80;99.90
9975;DHT22;5028;50.974;4.968;2023-08-06T12:24:00;14.80;99.90
9975;DHT22;5028;50.974;4.968;2023-08-06T12:26:29;14.90;99.90
9975;DHT22;5028;50.974;4.968;2023-08-06T12:29:00;14.90;99.90
9975;DHT22;5028;50.974;4.968;2023-08-06T12:31:29;15.00;99.90
9975;DHT22;5028;50.974;4.968;2023-08-06T12:33:58;15.00;99.90
9975;DHT22;5028;50.974;4.968;2023-08-06T12:36:27;14.90;99.90
9975;DHT22;5028;50.974;4.968;2023-08-06T12:38:56;14.80;99.90
9975;DHT22;5028;50.974;4.968;2023-08-06T12:41:25;14.70;99.90
9975;DHT22;5028;50.974;4.968;2023-08-06T12:43:54;14.60;99.90
9975;DHT22;5028;50.974;4.968;2023-08-06T12:46:24;14.60;99.90
9975;DHT22;5028;50.974;4.968;2023-08-06T12:48:57;14.60;99.90
9975;DHT22;5028;50.974;4.968;2023-08-06T12:51:26;14.50;99.90
9975;DHT22;5028;50.974;4.968;2023-08-06T12:53:55;14.50;99.90
9975;DHT22;5028;50.974;4.968;2023-08-06T12:56:24;14.40;99.90
9975;DHT22;5028;50.974;4.968;2023-08-06T12:58:53;14.40;99.90
9975;DHT22;5028;50.974;4.968;2023-08-06T13:01:24;14.40;99.90
9975;DHT22;5028;50.974;4.968;2023-08-06T13:03:53;14.30;99.90
9975;DHT22;5028;50.974;4.968;2023-08-06T13:06:43;14.30;99.90
9975;DHT22;5028;50.974;4.968;2023-08-06T13:09:13;14.30;99.90
9975;DHT22;5028;50.974;4.968;2023-08-06T13:11:41;14.30;99.90
9975;DHT22;5028;50.974;4.968;2023-08-06T13:14:14;14.30;99.90
9975;DHT22;5028;50.974;4.968;2023-08-06T13:16:46;14.30;99.90
9975;DHT22;5028;50.974;4.968;2023-08-06T13:19:15;14.30;99.90
9975;DHT22;5028;50.974;4.968;2023-08-06T13:22:02;14.30;99.90
9975;DHT22;5028;50.974;4.968;2023-08-06T13:24:34;14.40;99.90
9975;DHT22;5028;50.974;4.968;2023-08-06T13:27:04;14.30;99.90
9975;DHT22;5028;50.974;4.968;2023-08-06T13:29:34;14.30;99.90
9975;DHT22;5028;50.974;4.968;2023-08-06T13:32:05;14.30;99.90
9975;DHT22;5028;50.974;4.968;2023-08-06T13:34:34;14.20;99.90
9975;DHT22;5028;50.974;4.968;2023-08-06T13:37:04;14.20;99.90
9975;DHT22;5028;50.974;4.968;2023-08-06T13:39:33;14.20;99.90
9975;DHT22;5028;50.974;4.968;2023-08-06T13:42:02;14.10;99.90
9975;DHT22;5028;50.974;4.968;2023-08-06T13:44:31;14.10;99.90
9975;DHT22;5028;50.974;4.968;2023-08-06T13:47:04;14.00;99.90
9975;DHT22;5028;50.974;4.968;2023-08-06T13:49:35;14.00;99.90
9975;DHT22;5028;50.974;4.968;2023-08-06T13:52:05;13.90;99.90
9975;DHT22;5028;50.974;4.968;2023-08-06T13:54:48;13.90;99.90
9975;DHT22;5028;50.974;4.968;2023-08-06T13:57:17;13.90;99.90
9975;DHT22;5028;50.974;4.968;2023-08-06T13:59:46;13.90;99.90
9975;DHT22;5028;50.974;4.968;2023-08-06T14:02:16;13.80;99.90
9975;DHT22;5028;50.974;4.968;2023-08-06T14:04:46;13.80;99.90
9975;DHT22;5028;50.974;4.968;2023-08-06T14:07:14;13.70;99.90
9975;DHT22;5028;50.974;4.968;2023-08-06T14:09:43;13.70;99.90
9975;DHT22;5028;50.974;4.968;2023-08-06T14:12:13;13.60;99.90
9975;DHT22;5028;50.974;4.968;2023-08-06T14:14:42;13.60;99.90
9975;DHT22;5028;50.974;4.968;2023-08-06T14:17:10;13.50;99.90
9975;DHT22;5028;50.974;4.968;2023-08-06T14:19:41;13.30;99.90
9975;DHT22;5028;50.974;4.968;2023-08-06T14:22:10;13.30;99.90
9975;DHT22;5028;50.974;4.968;2023-08-06T14:24:38;13.20;99.90
9975;DHT22;5028;50.974;4.968;2023-08-06T14:27:08;13.20;99.90
9975;DHT22;5028;50.974;4.968;2023-08-06T14:29:37;13.20;99.90
9975;DHT22;5028;50.974;4.968;2023-08-06T14:32:07;13.20;99.90
9975;DHT22;5028;50.974;4.968;2023-08-06T14:34:35;13.30;99.90
9975;DHT22;5028;50.974;4.968;2023-08-06T14:37:06;13.40;99.90
9975;DHT22;5028;50.974;4.968;2023-08-06T14:39:36;13.40;99.90
9975;DHT22;5028;50.974;4.968;2023-08-06T14:42:05;13.40;99.90
9975;DHT22;5028;50.974;4.968;2023-08-06T14:44:34;13.30;99.90
9975;DHT22;5028;50.974;4.968;2023-08-06T14:47:03;13.30;99.90
9975;DHT22;5028;50.974;4.968;2023-08-06T14:49:32;13.30;99.90
9975;DHT22;5028;50.974;4.968;2023-08-06T14:52:01;13.30;99.90
9975;DHT22;5028;50.974;4.968;2023-08-06T14:54:32;13.30;99.90
9975;DHT22;5028;50.974;4.968;2023-08-06T14:57:00;13.30;99.90
9975;DHT22;5028;50.974;4.968;2023-08-06T14:59:29;13.40;99.90
9975;DHT22;5028;50.974;4.968;2023-08-06T15:01:59;13.40;99.90
9975;DHT22;5028;50.974;4.968;2023-08-06T15:04:28;13.40;99.90
9975;DHT22;5028;50.974;4.968;2023-08-06T15:06:57;13.40;99.90
9975;DHT22;5028;50.974;4.968;2023-08-06T15:09:25;13.40;99.90
9975;DHT22;5028;50.974;4.968;2023-08-06T15:11:56;13.40;99.90
9975;DHT22;5028;50.974;4.968;2023-08-06T15:14:25;13.40;99.90
9975;DHT22;5028;50.974;4.968;2023-08-06T15:16:54;13.40;99.90
9975;DHT22;5028;50.974;4.968;2023-08-06T15:19:24;13.50;99.90
9975;DHT22;5028;50.974;4.968;2023-08-06T15:21:53;13.50;99.90
9975;DHT22;5028;50.974;4.968;2023-08-06T15:24:21;13.60;99.90
9975;DHT22;5028;50.974;4.968;2023-08-06T15:26:50;13.60;99.90
9975;DHT22;5028;50.974;4.968;2023-08-06T15:29:21;13.60;99.90
9975;DHT22;5028;50.974;4.968;2023-08-06T15:31:50;13.70;99.90
9975;DHT22;5028;50.974;4.968;2023-08-06T15:34:19;13.70;99.90
9975;DHT22;5028;50.974;4.968;2023-08-06T15:36:47;13.70;99.90
9975;DHT22;5028;50.974;4.968;2023-08-06T15:39:16;13.80;99.90
9975;DHT22;5028;50.974;4.968;2023-08-06T15:41:45;13.70;99.90
9975;DHT22;5028;50.974;4.968;2023-08-06T15:44:14;13.70;99.90
9975;DHT22;5028;50.974;4.968;2023-08-06T15:46:45;13.70;99.90
9975;DHT22;5028;50.974;4.968;2023-08-06T15:49:14;13.60;99.90
9975;DHT22;5028;50.974;4.968;2023-08-06T15:51:42;13.50;99.90
9975;DHT22;5028;50.974;4.968;2023-08-06T15:54:11;13.50;99.90
9975;DHT22;5028;50.974;4.968;2023-08-06T15:56:40;13.50;99.90
9975;DHT22;5028;50.974;4.968;2023-08-06T15:59:22;13.50;99.90
9975;DHT22;5028;50.974;4.968;2023-08-06T16:01:54;13.60;99.90
9975;DHT22;5028;50.974;4.968;2023-08-06T16:04:25;13.50;99.90
9975;DHT22;5028;50.974;4.968;2023-08-06T16:06:55;13.50;99.90
9975;DHT22;5028;50.974;4.968;2023-08-06T16:09:24;13.40;99.90
9975;DHT22;5028;50.974;4.968;2023-08-06T16:11:55;13.40;99.90
9975;DHT22;5028;50.974;4.968;2023-08-06T16:14:24;13.40;99.90
9975;DHT22;5028;50.974;4.968;2023-08-06T16:16:54;13.30;99.90
9975;DHT22;5028;50.974;4.968;2023-08-06T16:19:23;13.30;99.90